Decoded Metar for KPNC (PONCA CITY in OK, USA) (IATA:PNC) | Meteo·Mobile Aviation Weather
aviador You're here:

KPNC Decoded Metar

PONCA CITY in OK, USA
Report Time2018-08-21 15:53:00
UTC Time2018-08-21 16:07:52
Flight Rules vfr VFR
Wind010° at 05 kt
W.Decomp.*RWY 35: 4.8 kt HW 1.3 kt RCW
W.Rank010° ranks 8
Current wind is below 010° avg. (9.0)
Visibility9999 m
Phenomena:N/A
Clouds:N/A
Expected CloudBase > 2,400 ft AGL from Temp-Dew spread
CeilingNone
Temp24°C (ISA +11)
Dew Point18°C (69% RH)
QNH1021 hPa
Density Alt2,293 ft
Elevation1,010 ft
Report Wrong Elevation
Raw Report
KPNC 211553Z AUTO 01005KT 9SM CLR 24/18 A3016 RMK AO2 SLP203
T02390178=

Extra information for KPNC:More info

Metar Taf Metar & Taf Last 4 Metars F.Rules Stats Wind Profile Meteogram Temp Stats Airport Information Weather charts Add Link Nearby VenuesMetar ALERT Operation Metar Decoded Social comments

AIRNAV info for KPNC